createdAt,value
2022-10-17T00:02:17.964Z,100.00
2022-10-17T00:04:45.686Z,100.00
2022-10-17T00:07:14.748Z,100.00
2022-10-17T00:09:44.299Z,100.00
2022-10-17T00:12:12.514Z,100.00
2022-10-17T00:14:40.452Z,100.00
2022-10-17T00:17:08.163Z,100.00
2022-10-17T00:19:35.959Z,100.00
2022-10-17T00:22:03.672Z,100.00
2022-10-17T00:24:33.061Z,100.00
2022-10-17T00:27:00.737Z,100.00
2022-10-17T00:29:28.629Z,100.00
2022-10-17T00:31:56.946Z,100.00
2022-10-17T00:34:24.744Z,100.00
2022-10-17T00:36:53.057Z,100.00
2022-10-17T00:39:20.800Z,100.00
2022-10-17T00:41:49.879Z,100.00
2022-10-17T00:44:55.198Z,100.00
2022-10-17T00:47:24.040Z,100.00
2022-10-17T00:49:51.981Z,100.00
2022-10-17T00:52:22.957Z,100.00
2022-10-17T00:54:55.410Z,100.00
2022-10-17T00:57:25.166Z,100.00
2022-10-17T00:59:55.260Z,100.00
2022-10-17T01:02:23.803Z,100.00
2022-10-17T01:04:55.925Z,100.00
2022-10-17T01:07:24.096Z,100.00
2022-10-17T01:09:51.961Z,100.00
2022-10-17T01:12:23.637Z,100.00
2022-10-17T01:15:04.051Z,100.00
2022-10-17T01:17:41.781Z,100.00
2022-10-17T01:20:47.909Z,100.00
2022-10-17T01:24:01.190Z,100.00
2022-10-17T01:26:43.856Z,100.00
2022-10-17T01:29:42.572Z,100.00
2022-10-17T01:32:17.380Z,100.00
2022-10-17T01:34:53.778Z,100.00
2022-10-17T01:37:29.488Z,100.00
2022-10-17T01:40:04.517Z,100.00
2022-10-17T01:42:38.548Z,100.00
2022-10-17T01:45:14.238Z,100.00
2022-10-17T01:47:44.000Z,100.00
2022-10-17T01:50:16.598Z,100.00
2022-10-17T01:52:47.844Z,100.00
2022-10-17T01:55:21.271Z,100.00
2022-10-17T01:57:51.947Z,100.00
2022-10-17T02:00:23.752Z,100.00
2022-10-17T02:02:59.224Z,100.00
2022-10-17T02:05:30.296Z,100.00
2022-10-17T02:07:57.997Z,100.00
2022-10-17T02:10:36.259Z,100.00
2022-10-17T02:13:10.841Z,100.00
2022-10-17T02:15:54.520Z,100.00
2022-10-17T02:18:42.748Z,100.00
2022-10-17T02:21:19.962Z,100.00
2022-10-17T02:23:54.801Z,100.00
2022-10-17T02:26:29.343Z,100.00
2022-10-17T02:29:08.005Z,100.00
2022-10-17T02:31:40.925Z,100.00
2022-10-17T02:34:17.546Z,100.00
2022-10-17T02:36:53.180Z,100.00
2022-10-17T02:39:24.459Z,100.00
2022-10-17T02:41:55.061Z,100.00
2022-10-17T02:44:23.958Z,100.00
2022-10-17T02:46:56.724Z,100.00
2022-10-17T02:49:29.827Z,100.00
2022-10-17T02:52:04.993Z,100.00
2022-10-17T02:54:38.101Z,100.00
2022-10-17T02:57:11.689Z,100.00
2022-10-17T02:59:42.087Z,100.00
2022-10-17T03:02:09.827Z,100.00
2022-10-17T03:04:39.253Z,100.00
2022-10-17T03:07:07.050Z,100.00
2022-10-17T03:09:34.766Z,100.00
2022-10-17T03:12:02.474Z,100.00
2022-10-17T03:14:30.608Z,100.00
2022-10-17T03:16:58.319Z,100.00
2022-10-17T03:19:27.051Z,100.00
2022-10-17T03:21:56.460Z,100.00
2022-10-17T03:24:24.194Z,100.00
2022-10-17T03:26:51.881Z,100.00
2022-10-17T03:29:19.711Z,100.00
2022-10-17T03:31:48.038Z,100.00
2022-10-17T03:34:16.774Z,100.00
2022-10-17T03:36:44.720Z,100.00
2022-10-17T03:39:14.151Z,100.00
2022-10-17T03:41:41.989Z,100.00
2022-10-17T03:44:10.199Z,100.00
2022-10-17T03:46:37.958Z,100.00
2022-10-17T03:49:05.693Z,100.00
2022-10-17T03:51:34.349Z,100.00
2022-10-17T03:54:05.667Z,100.00
2022-10-17T03:56:35.365Z,100.00
2022-10-17T03:59:06.207Z,100.00
2022-10-17T04:01:36.620Z,100.00
2022-10-17T04:04:04.462Z,100.00
2022-10-17T04:06:35.200Z,100.00
2022-10-17T04:09:03.153Z,100.00
2022-10-17T04:11:55.350Z,100.00
2022-10-17T04:14:23.882Z,100.00
2022-10-17T04:16:53.465Z,100.00
2022-10-17T04:19:22.245Z,100.00
2022-10-17T04:21:50.786Z,100.00
2022-10-17T04:24:19.974Z,100.00
2022-10-17T04:27:05.416Z,100.00
2022-10-17T04:29:36.857Z,100.00
2022-10-17T04:32:15.235Z,100.00
2022-10-17T04:34:49.623Z,100.00
2022-10-17T04:37:18.198Z,100.00
2022-10-17T04:39:47.460Z,100.00
2022-10-17T04:42:16.873Z,100.00
2022-10-17T04:44:44.614Z,100.00
2022-10-17T04:47:14.721Z,100.00
2022-10-17T04:49:42.796Z,100.00
2022-10-17T04:52:11.847Z,100.00
2022-10-17T04:54:46.994Z,100.00
2022-10-17T04:57:16.721Z,100.00
2022-10-17T04:59:52.835Z,100.00
2022-10-17T05:02:55.750Z,100.00
2022-10-17T05:05:23.490Z,100.00
2022-10-17T05:07:54.556Z,100.00
2022-10-17T05:10:26.191Z,100.00
2022-10-17T05:12:56.568Z,100.00
2022-10-17T05:15:28.299Z,100.00
2022-10-17T05:17:56.956Z,100.00
2022-10-17T05:20:26.960Z,100.00
2022-10-17T05:22:55.104Z,100.00
2022-10-17T05:25:24.321Z,100.00
2022-10-17T05:27:52.113Z,100.00
2022-10-17T05:30:21.462Z,100.00
2022-10-17T05:32:53.864Z,100.00
2022-10-17T05:35:22.056Z,100.00
2022-10-17T05:37:49.783Z,100.00
2022-10-17T05:40:18.898Z,100.00
2022-10-17T05:42:47.989Z,100.00
2022-10-17T05:45:17.276Z,100.00
2022-10-17T05:47:46.334Z,100.00
2022-10-17T05:50:14.131Z,100.00
2022-10-17T05:53:03.019Z,100.00
2022-10-17T05:55:30.838Z,100.00
2022-10-17T05:58:00.788Z,100.00
2022-10-17T06:00:33.256Z,100.00
2022-10-17T06:03:02.586Z,100.00
2022-10-17T06:05:30.288Z,100.00
2022-10-17T06:08:01.852Z,100.00
2022-10-17T06:10:32.213Z,100.00
2022-10-17T06:13:00.969Z,100.00
2022-10-17T06:15:28.726Z,100.00
2022-10-17T06:18:03.660Z,100.00
2022-10-17T06:20:31.703Z,100.00
2022-10-17T06:22:59.435Z,100.00
2022-10-17T06:25:42.895Z,100.00
2022-10-17T06:28:11.516Z,100.00
2022-10-17T06:30:39.974Z,100.00
2022-10-17T06:33:09.181Z,100.00
2022-10-17T06:35:37.105Z,100.00
2022-10-17T06:38:05.346Z,100.00
2022-10-17T06:40:34.244Z,100.00
2022-10-17T06:43:01.951Z,100.00
2022-10-17T06:45:52.519Z,100.00
2022-10-17T06:48:34.181Z,100.00
2022-10-17T06:51:13.996Z,100.00
2022-10-17T06:53:54.942Z,100.00
2022-10-17T06:56:41.113Z,100.00
2022-10-17T06:59:27.317Z,100.00
2022-10-17T07:02:06.827Z,100.00
2022-10-17T07:04:36.054Z,100.00
2022-10-17T07:07:04.241Z,100.00
2022-10-17T07:09:34.521Z,100.00
2022-10-17T07:12:05.248Z,100.00
2022-10-17T07:14:33.029Z,100.00
2022-10-17T07:17:01.314Z,100.00
2022-10-17T07:19:31.904Z,100.00
2022-10-17T07:22:00.948Z,100.00
2022-10-17T07:24:29.116Z,100.00
2022-10-17T07:27:08.760Z,100.00
2022-10-17T07:29:36.707Z,100.00
2022-10-17T07:32:10.896Z,100.00
2022-10-17T07:34:38.893Z,100.00
2022-10-17T07:37:09.936Z,100.00
2022-10-17T07:39:40.260Z,100.00
2022-10-17T07:42:08.885Z,100.00
2022-10-17T07:44:36.695Z,100.00
2022-10-17T07:47:04.982Z,100.00
2022-10-17T07:49:32.854Z,100.00
2022-10-17T07:52:00.600Z,100.00
2022-10-17T07:54:29.648Z,100.00
2022-10-17T07:56:57.367Z,100.00
2022-10-17T07:59:25.153Z,100.00
2022-10-17T08:01:56.007Z,100.00
2022-10-17T08:04:24.261Z,100.00
2022-10-17T08:06:56.452Z,100.00
2022-10-17T08:09:29.633Z,100.00
2022-10-17T08:11:57.336Z,100.00
2022-10-17T08:14:25.137Z,100.00
2022-10-17T08:16:55.284Z,100.00
2022-10-17T08:19:23.079Z,100.00
2022-10-17T08:21:51.787Z,100.00
2022-10-17T08:24:19.634Z,100.00
2022-10-17T08:26:51.624Z,100.00
2022-10-17T08:29:19.885Z,100.00
2022-10-17T08:31:48.401Z,100.00
2022-10-17T08:34:17.718Z,100.00
2022-10-17T08:36:45.451Z,100.00
2022-10-17T08:39:13.136Z,100.00
2022-10-17T08:42:02.328Z,100.00
2022-10-17T08:44:40.597Z,100.00
2022-10-17T08:47:15.374Z,100.00
2022-10-17T08:49:48.588Z,100.00
2022-10-17T08:52:23.069Z,100.00
2022-10-17T08:54:52.483Z,100.00
2022-10-17T08:57:21.745Z,100.00
2022-10-17T08:59:53.011Z,100.00
2022-10-17T09:02:32.935Z,100.00
2022-10-17T09:05:29.096Z,100.00
2022-10-17T09:08:08.737Z,100.00
2022-10-17T09:10:50.277Z,100.00
2022-10-17T09:13:32.262Z,100.00
2022-10-17T09:16:25.480Z,100.00
2022-10-17T09:19:04.069Z,100.00
2022-10-17T09:21:43.785Z,100.00
2022-10-17T09:24:17.821Z,100.00
2022-10-17T09:26:46.967Z,100.00
2022-10-17T09:29:22.490Z,100.00
2022-10-17T09:34:28.897Z,100.00
2022-10-17T09:36:58.759Z,100.00
2022-10-17T09:39:29.121Z,100.00
2022-10-17T09:41:59.145Z,100.00
2022-10-17T09:44:31.905Z,99.87
2022-10-17T09:47:22.325Z,100.00
2022-10-17T09:49:51.464Z,94.50
2022-10-17T09:52:22.535Z,92.21
2022-10-17T09:54:52.285Z,95.83
2022-10-17T09:57:21.811Z,93.77
2022-10-17T09:59:58.827Z,97.96
2022-10-17T10:02:29.038Z,92.79
2022-10-17T10:05:07.474Z,93.06
2022-10-17T10:07:38.950Z,88.59
2022-10-17T10:10:24.103Z,87.75
2022-10-17T10:13:05.437Z,79.67
2022-10-17T10:15:38.618Z,84.33
2022-10-17T10:21:10.746Z,80.03
2022-10-17T10:23:42.940Z,80.61
2022-10-17T10:26:22.557Z,77.29
2022-10-17T10:28:57.651Z,81.25
2022-10-17T10:31:33.500Z,77.10
2022-10-17T10:34:04.256Z,77.71
2022-10-17T10:36:46.972Z,70.37
2022-10-17T10:39:34.733Z,69.65
2022-10-17T10:42:04.187Z,70.31
2022-10-17T10:44:34.026Z,65.85
2022-10-17T10:47:20.840Z,66.07
2022-10-17T10:49:49.095Z,64.83
2022-10-17T10:52:26.121Z,63.07
2022-10-17T10:55:04.969Z,63.05
2022-10-17T10:57:37.811Z,51.15
2022-10-17T11:00:13.897Z,58.17
2022-10-17T11:02:52.768Z,64.30
2022-10-17T11:05:25.713Z,54.25
2022-10-17T11:08:00.527Z,56.40
2022-10-17T11:10:36.702Z,47.98
2022-10-17T11:13:07.667Z,47.93
2022-10-17T11:15:41.393Z,65.41
2022-10-17T11:18:17.490Z,64.87
2022-10-17T11:20:52.677Z,79.11
2022-10-17T11:23:25.539Z,64.08
2022-10-17T11:25:55.598Z,66.41
2022-10-17T11:28:25.778Z,62.68
2022-10-17T11:30:58.647Z,76.88
2022-10-17T11:33:31.671Z,73.40
2022-10-17T11:36:04.343Z,68.19
2022-10-17T11:38:41.813Z,57.31
2022-10-17T11:41:13.409Z,48.29
2022-10-17T11:43:49.878Z,47.41
2022-10-17T11:46:23.717Z,42.03
2022-10-17T11:49:05.722Z,50.18
2022-10-17T11:54:37.823Z,68.69
2022-10-17T11:57:19.359Z,68.86
2022-10-17T12:00:00.396Z,64.64
2022-10-17T12:02:37.863Z,68.18
2022-10-17T12:05:20.946Z,67.33
2022-10-17T12:07:53.491Z,73.58
2022-10-17T12:10:33.934Z,65.55
2022-10-17T12:13:35.617Z,58.41
2022-10-17T12:16:51.246Z,51.16
2022-10-17T12:19:32.623Z,63.65
2022-10-17T12:22:06.717Z,64.42
2022-10-17T12:24:38.480Z,61.00
2022-10-17T12:27:38.093Z,63.37
2022-10-17T12:30:15.919Z,77.76
2022-10-17T12:33:08.326Z,78.87
2022-10-17T12:35:37.968Z,79.37
2022-10-17T12:38:31.004Z,66.00
2022-10-17T12:41:03.340Z,68.29
2022-10-17T12:43:44.959Z,79.58
2022-10-17T12:46:13.304Z,79.39
2022-10-17T12:49:20.569Z,72.24
2022-10-17T12:52:15.815Z,67.35
2022-10-17T12:55:00.265Z,62.61
2022-10-17T12:57:42.332Z,68.44
2022-10-17T13:00:19.021Z,73.16
2022-10-17T13:02:48.120Z,70.80
2022-10-17T13:05:20.242Z,65.63
2022-10-17T13:07:50.417Z,72.92
2022-10-17T13:10:24.347Z,78.49
2022-10-17T13:12:55.927Z,78.04
2022-10-17T13:15:23.925Z,78.55
2022-10-17T13:17:59.310Z,77.01
2022-10-17T13:20:31.476Z,72.39
2022-10-17T13:23:00.045Z,76.94
2022-10-17T13:25:29.579Z,76.00
2022-10-17T13:28:15.755Z,73.36
2022-10-17T13:30:49.623Z,75.96
2022-10-17T13:33:31.557Z,81.17
2022-10-17T13:36:01.011Z,77.75
2022-10-17T13:38:34.877Z,79.13
2022-10-17T13:41:34.170Z,78.92
2022-10-17T13:44:02.570Z,80.93
2022-10-17T13:46:39.922Z,75.31
2022-10-17T13:49:16.422Z,76.35
2022-10-17T13:51:46.925Z,74.18
2022-10-17T13:54:19.962Z,75.68
2022-10-17T13:56:56.891Z,74.48
2022-10-17T13:59:26.936Z,77.87
2022-10-17T14:01:55.879Z,78.93
2022-10-17T14:04:23.615Z,77.25
2022-10-17T14:06:52.487Z,77.12
2022-10-17T14:09:24.579Z,79.04
2022-10-17T14:12:02.832Z,79.04
2022-10-17T14:14:46.223Z,80.23
2022-10-17T14:17:24.729Z,80.72
2022-10-17T14:20:16.071Z,80.20
2022-10-17T14:22:47.047Z,76.80
2022-10-17T14:25:36.672Z,72.59
2022-10-17T14:28:15.830Z,67.39
2022-10-17T14:31:01.407Z,71.82
2022-10-17T14:33:31.540Z,72.50
2022-10-17T14:36:02.847Z,68.16
2022-10-17T14:38:31.341Z,64.28
2022-10-17T14:41:40.850Z,61.93
2022-10-17T14:43:56.644Z,57.09
2022-10-17T14:46:24.560Z,55.31
2022-10-17T14:48:58.118Z,54.15
2022-10-17T14:51:25.808Z,57.67
2022-10-17T14:54:05.856Z,56.69
2022-10-17T14:56:42.750Z,53.86
2022-10-17T14:59:15.683Z,62.42
2022-10-17T15:01:49.394Z,70.27
2022-10-17T15:04:17.209Z,75.50
2022-10-17T15:06:45.671Z,76.19
2022-10-17T15:09:13.413Z,78.82
2022-10-17T15:11:41.170Z,78.54
2022-10-17T15:14:08.837Z,78.74
2022-10-17T15:16:39.384Z,78.46
2022-10-17T15:19:07.133Z,82.86
2022-10-17T15:21:40.589Z,84.19
2022-10-17T15:24:09.710Z,83.23
2022-10-17T15:26:37.950Z,82.39
2022-10-17T15:29:05.691Z,84.65
2022-10-17T15:31:36.403Z,85.24
2022-10-17T15:34:05.533Z,84.35
2022-10-17T15:36:39.451Z,83.80
2022-10-17T15:39:07.445Z,81.80
2022-10-17T15:41:35.468Z,87.61
2022-10-17T15:44:03.199Z,90.99
2022-10-17T15:46:34.204Z,89.17
2022-10-17T15:49:03.895Z,91.35
2022-10-17T15:51:32.938Z,96.53
2022-10-17T15:54:01.396Z,100.00
2022-10-17T15:56:32.111Z,100.00
2022-10-17T15:59:00.036Z,99.95
2022-10-17T16:01:30.824Z,100.00
2022-10-17T16:03:58.949Z,100.00
2022-10-17T16:06:27.527Z,100.00
2022-10-17T16:08:56.669Z,100.00
2022-10-17T16:11:31.662Z,100.00
2022-10-17T16:14:01.386Z,100.00
2022-10-17T16:16:29.372Z,100.00
2022-10-17T16:19:00.357Z,100.00
2022-10-17T16:24:05.884Z,100.00
2022-10-17T16:26:33.615Z,100.00
2022-10-17T16:29:03.072Z,100.00
2022-10-17T16:31:33.168Z,100.00
2022-10-17T16:34:02.447Z,100.00
2022-10-17T16:36:30.562Z,100.00
2022-10-17T16:38:58.369Z,100.00
2022-10-17T16:41:29.093Z,100.00
2022-10-17T16:43:58.944Z,100.00
2022-10-17T16:46:29.408Z,100.00
2022-10-17T16:48:57.946Z,100.00
2022-10-17T16:51:26.148Z,100.00
2022-10-17T16:53:56.393Z,100.00
2022-10-17T16:56:25.553Z,100.00
2022-10-17T16:58:54.601Z,100.00
2022-10-17T17:01:24.802Z,100.00
2022-10-17T17:03:53.693Z,100.00
2022-10-17T17:06:24.431Z,100.00
2022-10-17T17:08:52.420Z,100.00
2022-10-17T17:11:22.052Z,100.00
2022-10-17T17:13:49.961Z,100.00
2022-10-17T17:16:21.377Z,100.00
2022-10-17T17:18:54.488Z,100.00
2022-10-17T17:21:22.125Z,100.00
2022-10-17T17:23:49.858Z,100.00
2022-10-17T17:26:20.291Z,100.00
2022-10-17T17:28:48.589Z,100.00
2022-10-17T17:31:18.063Z,100.00
2022-10-17T17:33:48.175Z,100.00
2022-10-17T17:36:18.360Z,100.00
2022-10-17T17:38:47.116Z,100.00
2022-10-17T17:41:16.579Z,100.00
2022-10-17T17:43:45.993Z,100.00
2022-10-17T17:46:14.501Z,100.00
2022-10-17T17:48:43.225Z,100.00
2022-10-17T17:51:14.929Z,100.00
2022-10-17T17:53:42.624Z,100.00
2022-10-17T17:56:14.072Z,100.00
2022-10-17T17:58:45.537Z,100.00
2022-10-17T18:01:18.241Z,100.00
2022-10-17T18:03:46.923Z,100.00
2022-10-17T18:06:16.733Z,100.00
2022-10-17T18:08:45.864Z,100.00
2022-10-17T18:11:17.044Z,100.00
2022-10-17T18:13:47.913Z,100.00
2022-10-17T18:16:16.774Z,100.00
2022-10-17T18:18:45.986Z,100.00
2022-10-17T18:21:16.027Z,100.00
2022-10-17T18:23:45.080Z,100.00
2022-10-17T18:26:14.358Z,100.00
2022-10-17T18:28:43.385Z,100.00
2022-10-17T18:31:13.506Z,100.00
2022-10-17T18:33:41.401Z,100.00
2022-10-17T18:36:11.396Z,100.00
2022-10-17T18:38:40.513Z,100.00
2022-10-17T18:41:11.911Z,100.00
2022-10-17T18:43:44.284Z,100.00
2022-10-17T18:46:14.825Z,100.00
2022-10-17T18:48:44.328Z,100.00
2022-10-17T18:51:12.483Z,100.00
2022-10-17T18:53:42.350Z,100.00
2022-10-17T18:56:10.518Z,100.00
2022-10-17T18:58:38.840Z,100.00
2022-10-17T19:01:11.405Z,100.00
2022-10-17T19:03:39.475Z,100.00
2022-10-17T19:06:10.819Z,100.00
2022-10-17T19:08:39.371Z,100.00
2022-10-17T19:11:10.230Z,100.00
2022-10-17T19:13:38.407Z,100.00
2022-10-17T19:16:07.713Z,100.00
2022-10-17T19:18:35.823Z,100.00
2022-10-17T19:21:04.494Z,100.00
2022-10-17T19:23:32.587Z,100.00
2022-10-17T19:26:03.570Z,100.00
2022-10-17T19:28:32.886Z,100.00
2022-10-17T19:31:01.125Z,100.00
2022-10-17T19:36:04.172Z,100.00
2022-10-17T19:38:32.197Z,100.00
2022-10-17T19:43:36.187Z,100.00
2022-10-17T19:46:06.040Z,100.00
2022-10-17T19:48:35.169Z,100.00
2022-10-17T19:51:02.915Z,100.00
2022-10-17T19:53:30.676Z,100.00
2022-10-17T19:55:59.394Z,100.00
2022-10-17T19:58:28.206Z,100.00
2022-10-17T20:01:01.000Z,100.00
2022-10-17T20:03:29.948Z,100.00
2022-10-17T20:05:57.738Z,100.00
2022-10-17T20:10:54.092Z,100.00
2022-10-17T20:13:22.749Z,100.00
2022-10-17T20:15:59.096Z,100.00
2022-10-17T20:18:27.869Z,100.00
2022-10-17T20:20:55.998Z,100.00
2022-10-17T20:23:24.053Z,100.00
2022-10-17T20:26:07.895Z,100.00
2022-10-17T20:28:47.059Z,100.00
2022-10-17T20:31:16.754Z,100.00
2022-10-17T20:33:44.493Z,100.00
2022-10-17T20:36:15.131Z,100.00
2022-10-17T20:38:42.832Z,100.00
2022-10-17T20:41:11.495Z,100.00
2022-10-17T20:43:39.544Z,100.00
2022-10-17T20:46:22.847Z,100.00
2022-10-17T20:48:54.222Z,100.00
2022-10-17T20:51:22.858Z,100.00
2022-10-17T20:53:50.633Z,100.00
2022-10-17T20:56:20.980Z,100.00
2022-10-17T20:58:53.183Z,100.00
2022-10-17T21:01:21.857Z,100.00
2022-10-17T21:03:49.684Z,100.00
2022-10-17T21:06:19.767Z,100.00
2022-10-17T21:08:48.257Z,100.00
2022-10-17T21:11:18.102Z,100.00
2022-10-17T21:13:46.964Z,100.00
2022-10-17T21:16:17.052Z,100.00
2022-10-17T21:18:45.548Z,100.00
2022-10-17T21:21:16.304Z,100.00
2022-10-17T21:23:48.167Z,100.00
2022-10-17T21:26:17.087Z,100.00
2022-10-17T21:28:46.386Z,100.00
2022-10-17T21:31:16.254Z,100.00
2022-10-17T21:33:45.575Z,100.00
2022-10-17T21:36:16.247Z,100.00
2022-10-17T21:38:46.538Z,100.00
2022-10-17T21:41:16.004Z,100.00
2022-10-17T21:43:44.486Z,100.00
2022-10-17T21:46:14.231Z,100.00
2022-10-17T21:48:42.332Z,100.00
2022-10-17T21:51:11.605Z,100.00
2022-10-17T21:53:39.885Z,100.00
2022-10-17T21:56:12.155Z,100.00
2022-10-17T21:58:40.145Z,100.00
2022-10-17T22:01:09.723Z,100.00
2022-10-17T22:03:42.632Z,100.00
2022-10-17T22:06:37.712Z,100.00
2022-10-17T22:09:04.619Z,100.00
2022-10-17T22:11:35.585Z,100.00
2022-10-17T22:14:07.089Z,100.00
2022-10-17T22:16:35.705Z,100.00
2022-10-17T22:19:06.432Z,100.00
2022-10-17T22:21:36.122Z,100.00
2022-10-17T22:24:06.000Z,100.00
2022-10-17T22:26:36.663Z,100.00
2022-10-17T22:29:05.310Z,100.00
2022-10-17T22:31:33.396Z,100.00
2022-10-17T22:34:01.301Z,100.00
2022-10-17T22:36:29.189Z,100.00
2022-10-17T22:38:56.982Z,100.00
2022-10-17T22:41:24.851Z,100.00
2022-10-17T22:43:53.884Z,100.00
2022-10-17T22:46:21.622Z,100.00
2022-10-17T22:48:49.285Z,100.00
2022-10-17T22:51:17.372Z,100.00
2022-10-17T22:53:45.174Z,100.00
2022-10-17T22:56:15.145Z,100.00
2022-10-17T22:58:43.122Z,100.00
2022-10-17T23:01:16.124Z,100.00
2022-10-17T23:03:44.422Z,100.00
2022-10-17T23:06:12.425Z,100.00
2022-10-17T23:08:41.080Z,100.00
2022-10-17T23:11:09.816Z,100.00
2022-10-17T23:13:37.733Z,100.00
2022-10-17T23:16:05.909Z,100.00
2022-10-17T23:18:34.929Z,100.00
2022-10-17T23:21:02.629Z,100.00
2022-10-17T23:23:30.322Z,100.00
2022-10-17T23:26:05.117Z,100.00
2022-10-17T23:28:35.351Z,100.00
2022-10-17T23:31:13.710Z,100.00
2022-10-17T23:33:44.832Z,100.00
2022-10-17T23:36:13.391Z,100.00
2022-10-17T23:38:42.936Z,100.00
2022-10-17T23:41:11.133Z,100.00
2022-10-17T23:43:38.866Z,100.00
2022-10-17T23:46:08.137Z,100.00
2022-10-17T23:48:36.059Z,100.00
2022-10-17T23:51:05.391Z,100.00
2022-10-17T23:53:33.069Z,100.00
2022-10-17T23:56:00.830Z,100.00
2022-10-17T23:58:28.541Z,100.00
